Portada
METAR-TAF:

METAR-TAF

Aeroports :

Hōfu, Japó

latitud: 34-02N, longitud: 131-33E, altitud: 2 m

Observació

L'informe es va fer fa 5 hores i 21 minuts, a les 03:35 UTC
Vent 10 kt del Sud
Temperatura 11°C
Humitat 47%
Pressió 1027 hPa
Visibilitat 10 km o més
Escasses núvols a una alçada de 3000 ft
Cel cobert a una alçada de 22000 ft

METAR: RJOF 270335Z 19010KT 9999 FEW030 OVC220 11/M00 Q1027 RMK 1CU030 A3033

Hora: 17:56 (08:56 UTC)


TAF: manca

Observacions i pronòstics meteorològics de més de 4000 aeroports (METAR i TAF).

Les estacions disponibles són els punts grocs i vermells al mapa.

Posi el ratolí al punt desitjat per veure el nom de l'estació.

Feu clic per veure les observacions i els pronòstics meteorològics.

Per canviar el mapa: feu clic els botons verds amb una creu de color negre per apropar; al botó verd amb un guió per allunyar la imatge; o en les fletxes verdes per a mapes adjacents.


METAR-TAF: